createdAt,value
2018-01-24T00:01:44.723Z,14.60
2018-01-24T00:04:12.567Z,14.60
2018-01-24T00:06:40.359Z,14.50
2018-01-24T00:09:08.145Z,14.50
2018-01-24T00:11:36.683Z,14.50
2018-01-24T00:14:04.538Z,14.50
2018-01-24T00:16:32.437Z,14.50
2018-01-24T00:19:00.316Z,14.50
2018-01-24T00:21:28.854Z,14.50
2018-01-24T00:23:56.647Z,14.50
2018-01-24T00:26:24.484Z,14.50
2018-01-24T00:28:52.310Z,14.40
2018-01-24T00:31:20.902Z,14.40
2018-01-24T00:33:48.711Z,14.40
2018-01-24T00:36:16.509Z,14.50
2018-01-24T00:38:45.175Z,14.40
2018-01-24T00:41:12.942Z,14.40
2018-01-24T00:43:40.790Z,14.40
2018-01-24T00:46:08.589Z,14.40
2018-01-24T00:48:37.222Z,14.40
2018-01-24T00:51:05.011Z,14.40
2018-01-24T00:53:32.804Z,14.40
2018-01-24T00:56:01.344Z,14.30
2018-01-24T00:58:29.116Z,14.30
2018-01-24T01:00:56.919Z,14.30
2018-01-24T01:03:25.478Z,14.30
2018-01-24T01:05:53.276Z,14.30
2018-01-24T01:08:21.896Z,14.30
2018-01-24T01:10:49.751Z,14.30
2018-01-24T01:13:17.565Z,14.30
2018-01-24T01:22:29.627Z,14.20
2018-01-24T01:24:58.299Z,14.20
2018-01-24T01:27:26.847Z,14.20
2018-01-24T01:37:22.993Z,14.20
2018-01-24T01:39:50.842Z,14.10
2018-01-24T01:42:18.702Z,14.10
2018-01-24T01:44:46.601Z,14.10
2018-01-24T01:47:14.472Z,14.10
2018-01-24T01:49:42.311Z,14.10
2018-01-24T01:52:10.275Z,14.10
2018-01-24T01:54:38.222Z,14.10
2018-01-24T01:57:06.852Z,14.10
2018-01-24T01:59:34.802Z,14.10
2018-01-24T02:02:02.583Z,14.10
2018-01-24T02:04:30.355Z,14.00
2018-01-24T02:06:58.123Z,14.00
2018-01-24T02:09:25.994Z,14.00
2018-01-24T02:11:53.907Z,14.00
2018-01-24T02:14:22.514Z,14.00
2018-01-24T02:16:50.279Z,14.00
2018-01-24T02:19:18.111Z,14.00
2018-01-24T02:21:46.724Z,14.00
2018-01-24T02:24:14.544Z,14.00
2018-01-24T02:26:42.316Z,14.00
2018-01-24T02:29:10.108Z,14.00
2018-01-24T02:31:37.929Z,14.10
2018-01-24T02:34:05.924Z,14.00
2018-01-24T02:36:34.520Z,14.00
2018-01-24T02:39:15.938Z,14.00
2018-01-24T02:41:43.775Z,14.00
2018-01-24T02:44:12.335Z,14.00
2018-01-24T02:46:40.114Z,14.00
2018-01-24T02:49:08.680Z,14.00
2018-01-24T02:51:36.484Z,13.90
2018-01-24T02:54:04.311Z,13.90
2018-01-24T03:16:44.196Z,14.00
2018-01-24T03:19:12.786Z,14.00
2018-01-24T03:21:40.579Z,13.90
2018-01-24T03:24:08.432Z,14.00
2018-01-24T03:26:36.248Z,14.00
2018-01-24T03:29:04.106Z,13.90
2018-01-24T03:31:31.886Z,13.90
2018-01-24T03:33:59.667Z,13.90
2018-01-24T03:36:27.502Z,13.90
2018-01-24T03:38:55.357Z,13.90
2018-01-24T03:41:23.141Z,13.90
2018-01-24T03:43:50.943Z,13.90
2018-01-24T03:46:19.527Z,13.90
2018-01-24T03:48:48.071Z,13.90
2018-01-24T03:51:15.874Z,13.90
2018-01-24T03:53:43.708Z,13.90
2018-01-24T03:56:11.552Z,13.90
2018-01-24T03:58:39.326Z,13.90
2018-01-24T04:01:07.119Z,13.90
2018-01-24T04:03:35.672Z,13.80
2018-01-24T04:06:03.521Z,13.80
2018-01-24T04:08:31.292Z,13.80
2018-01-24T04:10:59.127Z,13.80
2018-01-24T04:13:26.939Z,13.80
2018-01-24T04:15:54.785Z,13.80
2018-01-24T04:18:22.626Z,13.80
2018-01-24T04:20:50.456Z,13.80
2018-01-24T04:23:18.238Z,13.70
2018-01-24T04:25:46.780Z,13.70
2018-01-24T04:28:14.637Z,13.70
2018-01-24T04:30:42.453Z,13.70
2018-01-24T04:33:10.241Z,13.60
2018-01-24T04:35:38.022Z,13.60
2018-01-24T04:38:05.883Z,13.60
2018-01-24T04:40:33.787Z,13.60
2018-01-24T04:43:01.615Z,13.60
2018-01-24T04:45:29.520Z,13.60
2018-01-24T04:47:57.299Z,13.60
2018-01-24T04:50:25.971Z,13.50
2018-01-24T04:52:53.919Z,13.50
2018-01-24T04:55:21.703Z,13.50
2018-01-24T04:57:49.703Z,13.50
2018-01-24T05:00:17.588Z,13.50
2018-01-24T05:02:45.539Z,13.50
2018-01-24T05:05:13.531Z,13.50
2018-01-24T05:07:41.443Z,13.50
2018-01-24T05:10:09.370Z,13.50
2018-01-24T05:12:37.259Z,13.40
2018-01-24T05:15:06.046Z,13.50
2018-01-24T05:17:33.856Z,13.50
2018-01-24T05:20:02.499Z,13.40
2018-01-24T05:22:30.472Z,13.40
2018-01-24T05:24:58.269Z,13.50
2018-01-24T05:27:26.820Z,13.40
2018-01-24T05:29:54.656Z,13.40
2018-01-24T05:32:22.451Z,13.50
2018-01-24T05:34:50.248Z,13.40
2018-01-24T05:37:18.884Z,13.40
2018-01-24T05:39:46.698Z,13.40
2018-01-24T05:42:15.289Z,13.40
2018-01-24T05:44:43.150Z,13.30
2018-01-24T05:47:10.966Z,13.40
2018-01-24T05:49:38.743Z,13.40
2018-01-24T05:52:06.580Z,13.40
2018-01-24T05:54:34.466Z,13.40
2018-01-24T05:57:02.242Z,13.30
2018-01-24T05:59:30.047Z,13.30
2018-01-24T06:01:57.835Z,13.30
2018-01-24T06:04:25.632Z,13.30
2018-01-24T06:06:53.589Z,13.30
2018-01-24T06:09:21.359Z,13.30
2018-01-24T06:11:49.155Z,13.20
2018-01-24T06:14:17.701Z,13.20
2018-01-24T06:16:45.485Z,13.10
2018-01-24T06:19:14.292Z,13.10
2018-01-24T06:21:42.929Z,13.10
2018-01-24T06:24:10.730Z,13.10
2018-01-24T06:26:39.338Z,13.10
2018-01-24T06:29:07.197Z,13.10
2018-01-24T06:31:35.734Z,13.10
2018-01-24T06:34:03.951Z,13.10
2018-01-24T06:36:32.573Z,13.00
2018-01-24T06:39:00.384Z,13.00
2018-01-24T06:41:28.932Z,13.00
2018-01-24T06:43:56.699Z,13.00
2018-01-24T06:46:24.473Z,13.00
2018-01-24T06:48:52.284Z,13.00
2018-01-24T06:51:20.103Z,13.00
2018-01-24T06:53:47.903Z,13.00
2018-01-24T06:56:16.443Z,12.90
2018-01-24T06:58:44.333Z,12.90
2018-01-24T07:01:12.118Z,12.90
2018-01-24T07:03:40.667Z,12.90
2018-01-24T07:06:08.530Z,12.90
2018-01-24T07:08:36.322Z,12.90
2018-01-24T07:11:04.185Z,12.90
2018-01-24T07:13:44.546Z,12.90
2018-01-24T07:16:13.130Z,12.90
2018-01-24T07:18:41.655Z,12.90
2018-01-24T07:21:09.512Z,12.90
2018-01-24T07:23:37.311Z,12.90
2018-01-24T07:26:05.129Z,12.90
2018-01-24T07:28:32.937Z,12.90
2018-01-24T07:31:00.783Z,12.90
2018-01-24T07:33:28.627Z,13.00
2018-01-24T07:35:56.529Z,13.00
2018-01-24T07:38:24.435Z,13.10
2018-01-24T07:40:52.215Z,13.10
2018-01-24T07:43:20.064Z,13.10
2018-01-24T07:45:47.903Z,13.10
2018-01-24T07:48:15.688Z,13.20
2018-01-24T07:50:43.507Z,13.20
2018-01-24T07:53:11.285Z,13.20
2018-01-24T07:55:39.162Z,13.20
2018-01-24T07:58:07.125Z,13.30
2018-01-24T08:00:35.073Z,13.30
2018-01-24T08:03:02.867Z,13.40
2018-01-24T08:05:30.655Z,13.50
2018-01-24T08:07:59.314Z,13.50
2018-01-24T08:10:27.250Z,13.50
2018-01-24T08:12:55.137Z,13.60
2018-01-24T08:15:22.988Z,13.60
2018-01-24T08:17:50.852Z,13.60
2018-01-24T08:20:18.787Z,13.70
2018-01-24T08:22:47.417Z,13.80
2018-01-24T08:25:15.239Z,13.80
2018-01-24T08:27:43.878Z,13.90
2018-01-24T08:30:11.743Z,13.90
2018-01-24T08:32:40.440Z,14.00
2018-01-24T08:35:08.220Z,14.00
2018-01-24T08:37:36.071Z,14.10
2018-01-24T08:40:04.005Z,14.20
2018-01-24T08:42:31.827Z,14.20
2018-01-24T08:45:01.568Z,14.40
2018-01-24T08:47:29.576Z,14.40
2018-01-24T08:49:57.391Z,14.40
2018-01-24T08:52:25.283Z,14.50
2018-01-24T08:54:53.104Z,14.60
2018-01-24T08:57:21.818Z,14.80
2018-01-24T08:59:49.676Z,14.70
2018-01-24T09:02:17.512Z,14.80
2018-01-24T09:04:45.292Z,14.90
2018-01-24T09:07:13.919Z,15.00
2018-01-24T09:09:41.778Z,15.00
2018-01-24T09:12:09.565Z,15.10
2018-01-24T09:14:37.675Z,15.10
2018-01-24T09:17:06.288Z,15.20
2018-01-24T09:19:34.103Z,15.20
2018-01-24T09:22:02.948Z,15.20
2018-01-24T09:24:30.925Z,15.30
2018-01-24T09:26:58.804Z,15.30
2018-01-24T09:29:26.580Z,15.30
2018-01-24T09:31:57.504Z,15.40
2018-01-24T09:34:25.285Z,15.40
2018-01-24T09:36:53.099Z,15.50
2018-01-24T09:39:20.880Z,15.50
2018-01-24T09:41:48.711Z,15.60
2018-01-24T09:44:16.660Z,15.60
2018-01-24T09:46:44.473Z,15.60
2018-01-24T09:49:12.331Z,15.60
2018-01-24T09:51:40.265Z,15.70
2018-01-24T09:54:08.103Z,15.70
2018-01-24T09:56:35.944Z,15.80
2018-01-24T09:59:03.747Z,15.80
2018-01-24T10:01:31.519Z,15.80
2018-01-24T10:03:59.311Z,15.80
2018-01-24T10:06:27.210Z,15.90
2018-01-24T10:08:55.063Z,15.90
2018-01-24T10:11:23.060Z,15.90
2018-01-24T10:13:50.894Z,15.90
2018-01-24T10:16:18.741Z,16.00
2018-01-24T10:18:47.323Z,16.00
2018-01-24T10:21:15.933Z,16.00
2018-01-24T10:23:44.688Z,16.00
2018-01-24T10:26:13.424Z,16.00
2018-01-24T10:28:41.272Z,16.00
2018-01-24T10:31:09.257Z,16.00
2018-01-24T10:33:37.037Z,16.10
2018-01-24T10:36:04.806Z,16.10
2018-01-24T10:38:32.698Z,16.10
2018-01-24T10:41:01.316Z,16.20
2018-01-24T10:43:29.085Z,16.10
2018-01-24T10:45:57.215Z,16.10
2018-01-24T10:48:24.997Z,16.20
2018-01-24T10:50:53.595Z,16.20
2018-01-24T10:53:21.365Z,16.20
2018-01-24T10:55:49.223Z,16.20
2018-01-24T10:58:17.085Z,16.20
2018-01-24T11:00:44.876Z,16.20
2018-01-24T11:03:12.756Z,16.20
2018-01-24T11:05:40.662Z,16.30
2018-01-24T11:08:09.444Z,16.30
2018-01-24T11:10:37.216Z,16.30
2018-01-24T11:13:05.756Z,16.40
2018-01-24T11:15:33.758Z,16.40
2018-01-24T11:18:02.323Z,16.50
2018-01-24T11:20:30.117Z,16.40
2018-01-24T11:22:58.742Z,16.50
2018-01-24T11:25:26.639Z,16.40
2018-01-24T11:27:54.586Z,16.50
2018-01-24T11:30:22.480Z,16.50
2018-01-24T11:32:50.288Z,16.50
2018-01-24T11:35:18.211Z,16.50
2018-01-24T11:37:46.031Z,16.50
2018-01-24T11:40:14.136Z,16.60
2018-01-24T11:42:42.065Z,16.60
2018-01-24T11:45:09.875Z,16.60
2018-01-24T11:47:37.688Z,16.60
2018-01-24T11:50:05.549Z,16.70
2018-01-24T11:52:34.148Z,16.70
2018-01-24T11:55:01.978Z,16.70
2018-01-24T11:57:30.559Z,16.80
2018-01-24T11:59:58.367Z,16.80
2018-01-24T12:02:26.805Z,16.80
2018-01-24T12:04:54.639Z,16.90
2018-01-24T12:07:22.453Z,16.80
2018-01-24T12:09:51.039Z,16.80
2018-01-24T12:12:19.570Z,16.80
2018-01-24T12:14:47.403Z,16.70
2018-01-24T12:17:15.221Z,16.80
2018-01-24T12:19:44.315Z,16.80
2018-01-24T12:22:12.159Z,16.70
2018-01-24T12:24:39.989Z,16.70
2018-01-24T12:27:07.805Z,16.70
2018-01-24T12:29:35.608Z,16.70
2018-01-24T12:32:03.463Z,16.70
2018-01-24T12:34:32.135Z,16.60
2018-01-24T12:36:59.932Z,16.50
2018-01-24T12:39:27.702Z,16.60
2018-01-24T12:41:55.564Z,16.60
2018-01-24T12:44:24.413Z,16.70
2018-01-24T12:46:52.208Z,16.70
2018-01-24T12:49:20.117Z,16.70
2018-01-24T12:51:47.932Z,16.70
2018-01-24T12:54:16.487Z,16.70
2018-01-24T12:56:44.274Z,16.70
2018-01-24T12:59:12.887Z,16.70
2018-01-24T13:01:40.668Z,16.70
2018-01-24T13:04:08.476Z,16.80
2018-01-24T13:06:36.276Z,16.70
2018-01-24T13:09:05.059Z,16.70
2018-01-24T13:11:32.969Z,16.70
2018-01-24T13:14:00.816Z,16.70
2018-01-24T13:16:28.617Z,16.70
2018-01-24T13:18:56.407Z,16.80
2018-01-24T13:21:25.127Z,16.70
2018-01-24T13:23:53.076Z,16.70
2018-01-24T13:26:20.896Z,16.70
2018-01-24T13:28:48.841Z,16.80
2018-01-24T13:31:16.633Z,16.80
2018-01-24T13:33:44.411Z,16.80
2018-01-24T13:36:12.271Z,16.80
2018-01-24T13:38:40.111Z,16.70
2018-01-24T13:41:07.912Z,16.70
2018-01-24T13:43:36.510Z,16.70
2018-01-24T13:46:05.104Z,16.80
2018-01-24T13:48:32.939Z,16.70
2018-01-24T13:51:01.604Z,16.70
2018-01-24T13:53:30.192Z,16.60
2018-01-24T13:55:57.974Z,16.60
2018-01-24T13:58:26.530Z,16.60
2018-01-24T14:00:54.302Z,16.70
2018-01-24T14:03:22.104Z,16.70
2018-01-24T14:05:49.903Z,16.70
2018-01-24T14:08:17.782Z,16.70
2018-01-24T14:10:45.611Z,16.70
2018-01-24T14:13:13.441Z,16.80
2018-01-24T14:15:41.235Z,16.70
2018-01-24T14:18:09.083Z,16.70
2018-01-24T14:20:37.653Z,16.70
2018-01-24T14:23:05.468Z,16.70
2018-01-24T14:25:33.565Z,16.70
2018-01-24T14:28:01.335Z,16.70
2018-01-24T14:30:29.107Z,16.70
2018-01-24T14:32:56.897Z,16.70
2018-01-24T14:35:25.524Z,16.70
2018-01-24T14:37:53.319Z,16.70
2018-01-24T14:40:21.164Z,16.70
2018-01-24T14:42:48.991Z,16.60
2018-01-24T14:45:17.615Z,16.60
2018-01-24T14:47:45.423Z,16.60
2018-01-24T14:50:13.977Z,16.60
2018-01-24T14:52:41.793Z,16.60
2018-01-24T14:55:09.595Z,16.60
2018-01-24T14:57:37.434Z,16.60
2018-01-24T15:00:05.426Z,16.60
2018-01-24T15:02:33.233Z,16.60
2018-01-24T15:05:02.523Z,16.40
2018-01-24T15:07:30.299Z,16.40
2018-01-24T15:09:58.849Z,16.40
2018-01-24T15:12:26.616Z,16.40
2018-01-24T15:14:54.445Z,16.40
2018-01-24T15:17:22.281Z,16.40
2018-01-24T15:19:50.051Z,16.30
2018-01-24T15:22:18.713Z,16.30
2018-01-24T15:24:47.267Z,16.30
2018-01-24T15:27:15.088Z,16.30
2018-01-24T15:29:42.997Z,16.30
2018-01-24T15:32:10.799Z,16.30
2018-01-24T15:34:39.380Z,16.20
2018-01-24T15:37:07.196Z,16.20
2018-01-24T15:39:35.006Z,16.20
2018-01-24T15:42:02.843Z,16.20
2018-01-24T15:44:30.685Z,16.10
2018-01-24T15:46:58.483Z,16.10
2018-01-24T15:49:26.254Z,16.10
2018-01-24T15:51:55.048Z,16.10
2018-01-24T15:54:22.974Z,16.00
2018-01-24T15:56:50.870Z,16.00
2018-01-24T15:59:18.683Z,16.10
2018-01-24T16:01:48.118Z,16.10
2018-01-24T16:04:15.914Z,16.10
2018-01-24T16:06:43.712Z,16.10
2018-01-24T16:09:11.536Z,16.10
2018-01-24T16:11:39.310Z,16.00
2018-01-24T16:14:07.112Z,16.00
2018-01-24T16:16:34.921Z,15.90
2018-01-24T16:19:02.744Z,15.90
2018-01-24T16:21:30.576Z,15.90
2018-01-24T16:23:58.442Z,15.90
2018-01-24T16:26:26.263Z,15.90
2018-01-24T16:28:54.038Z,15.90
2018-01-24T16:31:21.880Z,15.90
2018-01-24T16:33:50.905Z,15.90
2018-01-24T16:36:18.946Z,15.90
2018-01-24T16:38:46.707Z,15.90
2018-01-24T16:41:14.524Z,15.90
2018-01-24T16:43:42.970Z,15.90
2018-01-24T16:46:10.881Z,15.90
2018-01-24T16:48:39.362Z,15.90
2018-01-24T16:51:07.192Z,15.80
2018-01-24T16:53:35.030Z,15.80
2018-01-24T16:56:02.902Z,15.80
2018-01-24T16:58:30.711Z,15.80
2018-01-24T17:00:59.344Z,15.80
2018-01-24T17:03:27.160Z,15.80
2018-01-24T17:05:55.483Z,15.70
2018-01-24T17:08:23.349Z,15.80
2018-01-24T17:10:51.121Z,15.80
2018-01-24T17:13:18.887Z,15.80
2018-01-24T17:15:46.703Z,15.80
2018-01-24T17:18:14.584Z,15.80
2018-01-24T17:20:43.165Z,15.70
2018-01-24T17:23:11.724Z,15.80
2018-01-24T17:25:39.494Z,15.70
2018-01-24T17:28:07.356Z,15.80
2018-01-24T17:30:38.844Z,15.70
2018-01-24T17:33:06.686Z,15.70
2018-01-24T17:35:34.534Z,15.70
2018-01-24T17:38:02.352Z,15.80
2018-01-24T17:40:30.148Z,15.80
2018-01-24T17:42:58.724Z,15.70
2018-01-24T17:45:26.536Z,15.80
2018-01-24T17:47:54.298Z,15.70
2018-01-24T17:50:22.219Z,15.70
2018-01-24T17:52:50.038Z,15.70
2018-01-24T17:55:17.844Z,15.80
2018-01-24T17:57:45.894Z,15.70
2018-01-24T18:00:13.740Z,15.70
2018-01-24T18:02:41.599Z,15.70
2018-01-24T18:05:09.419Z,15.80
2018-01-24T18:07:38.021Z,15.70
2018-01-24T18:10:05.961Z,15.80
2018-01-24T18:12:33.798Z,15.80
2018-01-24T18:15:01.628Z,15.70
2018-01-24T18:17:29.457Z,15.70
2018-01-24T18:19:57.291Z,15.80
2018-01-24T18:22:25.078Z,15.70
2018-01-24T18:24:52.903Z,15.70
2018-01-24T18:27:20.703Z,15.70
2018-01-24T18:29:48.506Z,15.70
2018-01-24T18:32:16.301Z,15.70
2018-01-24T18:34:44.124Z,15.80
2018-01-24T18:37:11.963Z,15.80
2018-01-24T18:39:39.843Z,15.70
2018-01-24T18:42:07.632Z,15.80
2018-01-24T18:44:35.418Z,15.80
2018-01-24T18:47:03.235Z,15.80
2018-01-24T18:49:31.044Z,15.80
2018-01-24T18:51:58.889Z,15.80
2018-01-24T18:54:26.685Z,15.80
2018-01-24T18:56:54.530Z,15.80
2018-01-24T18:59:22.347Z,15.90
2018-01-24T19:01:50.140Z,15.90
2018-01-24T19:04:18.647Z,15.90
2018-01-24T19:06:46.516Z,15.90
2018-01-24T19:09:14.336Z,15.90
2018-01-24T19:11:42.176Z,15.90
2018-01-24T19:14:10.088Z,16.00
2018-01-24T19:16:38.026Z,15.90
2018-01-24T19:19:05.910Z,16.00
2018-01-24T19:21:33.815Z,16.00
2018-01-24T19:24:02.392Z,16.00
2018-01-24T19:26:30.251Z,16.00
2018-01-24T19:28:58.095Z,16.00
2018-01-24T19:31:25.899Z,16.00
2018-01-24T19:33:53.717Z,16.00
2018-01-24T19:36:21.583Z,16.00
2018-01-24T19:38:49.452Z,16.10
2018-01-24T19:41:17.235Z,16.10
2018-01-24T19:43:45.012Z,16.10
2018-01-24T19:46:12.889Z,16.10
2018-01-24T19:48:40.680Z,16.00
2018-01-24T19:51:09.229Z,16.00
2018-01-24T19:53:37.027Z,16.00
2018-01-24T19:56:04.909Z,16.00
2018-01-24T19:58:32.747Z,16.00
2018-01-24T20:01:01.348Z,16.00
2018-01-24T20:03:29.978Z,16.00
2018-01-24T20:05:57.847Z,16.00
2018-01-24T20:08:25.701Z,16.00
2018-01-24T20:10:53.513Z,16.00
2018-01-24T20:13:22.067Z,16.00
2018-01-24T20:15:49.871Z,16.00
2018-01-24T20:18:17.748Z,16.00
2018-01-24T20:20:45.722Z,16.10
2018-01-24T20:23:14.697Z,16.00
2018-01-24T20:25:42.499Z,16.10
2018-01-24T20:28:10.375Z,16.00
2018-01-24T20:30:39.423Z,16.00
2018-01-24T20:33:07.251Z,16.00
2018-01-24T20:35:35.147Z,16.00
2018-01-24T20:38:02.962Z,16.00
2018-01-24T20:40:33.298Z,16.00
2018-01-24T20:43:01.921Z,16.00
2018-01-24T20:45:29.742Z,16.00
2018-01-24T20:47:57.653Z,16.00
2018-01-24T20:50:26.257Z,16.00
2018-01-24T20:52:54.924Z,16.00
2018-01-24T20:55:25.931Z,16.00
2018-01-24T20:57:54.146Z,16.00
2018-01-24T21:00:22.587Z,15.90
2018-01-24T21:02:50.515Z,15.90
2018-01-24T21:05:18.365Z,15.90
2018-01-24T21:13:33.191Z,15.90
2018-01-24T21:16:01.066Z,15.90
2018-01-24T21:18:29.203Z,15.90
2018-01-24T21:20:57.073Z,15.90
2018-01-24T21:23:24.935Z,15.90
2018-01-24T21:25:52.764Z,15.90
2018-01-24T21:28:32.394Z,15.90
2018-01-24T21:31:12.048Z,15.90
2018-01-24T21:33:56.566Z,15.90
2018-01-24T21:36:33.267Z,15.90
2018-01-24T21:39:01.108Z,15.90
2018-01-24T21:41:28.982Z,15.90
2018-01-24T21:43:57.631Z,15.90
2018-01-24T21:46:25.683Z,15.90
2018-01-24T21:48:54.274Z,15.80
2018-01-24T21:51:22.115Z,15.90
2018-01-24T21:53:49.921Z,15.90
2018-01-24T21:56:18.500Z,15.80
2018-01-24T21:58:46.285Z,15.80
2018-01-24T23:55:27.407Z,15.20
2018-01-24T23:57:55.183Z,15.20
